Zadar, Croatia

03:07 PM CET am 20. Januar 2017 (GMT +0100)
Zadar, Croatia | | Change Station

Höhe 174 ft 44.12 °N, 15.26 °E | Updated 2 minutes ago

Clear
Heiter
51.1 °F
gefühlte 51.1 °F
N
0.0
Wind Wechselnd Wind aus Nordwest
Gusts 5.4 mph

Heute
Max. -- | schwach -- °F
--% Regenrisiko
Gestern
Max. -- | schwach -- °F
Precip. -- inch
Druck 30.42 inch
Sichtweite -9999.0 Meilen
Wolken
Taupunkt 28 °F
Feuchtigkeit 41%
Regen 0.00 inch
Schneehöhe Nicht verfügbar..
7:27 AM 4:52 PM
Letztes Viertel, 44% visible
METAR LDZD 201400Z 09008KT 060V140 CAVOK 06/M05 Q1030 NOSIG
Druck 30.42 inch
Sichtweite -9999.0 Meilen
Wolken
Taupunkt 28 °F
Feuchtigkeit 41%
Regen 0.00 inch
Schneehöhe Nicht verfügbar..
7:27 AM 4:52 PM
Letztes Viertel, 44% visible
METAR LDZD 201400Z 09008KT 060V140 CAVOK 06/M05 Q1030 NOSIG

Get Your Daily Forecast Email!

Thanks for signing up!

Be on the lookout for a verification email in your inbox.

You'll start receiving the daily forecast at 8 AM.

×

10-Day Weather Forecast

×

Almanac

Astronomie

Jan. 20, 2017 Aufgang Untergang
Genaue Zeit
Bürgerliche Dämmerung
Nautische Dämmerung
Astronomische Dämmerung
Mond
Länge des sichtbaren Lichts
Tageslänge
Tomorrow will be .
, % of the Moon is Illuminated

Heutige Rekorde

Country Highs Country Lows

Community

WunderPhotos

Upload Photos

1,962,540 Fotos hochgeladen!

WunderBlog® & News

Nearby

Luftqualität

  Luftqualität LQ Index Schadstoff
Not available.

Schneehöhe

Station Depth Höhe

Erdbebenaktivität

Stadt Distance Mag. Time & Date
Minimum magnitude displayed is 2.5.

küstennahe Wassertemperaturen

Ort Temperatur

Stations

Wetterstationen in der Umgebung

Stationsstandort Temp. Windchill Taupunkt Feuchtigkeit Wind Precip. Höhe Aktualisiert Art